createdAt,value
2017-08-12T00:00:31.858Z,61.4
2017-08-12T00:01:34.614Z,61.4
2017-08-12T00:02:37.802Z,61.4
2017-08-12T00:03:40.226Z,61.5
2017-08-12T00:04:42.651Z,61.4
2017-08-12T00:05:45.415Z,61.4
2017-08-12T00:06:48.176Z,61.5
2017-08-12T00:07:51.270Z,61.6
2017-08-12T00:08:53.689Z,61.5
2017-08-12T00:09:56.143Z,61.5
2017-08-12T00:10:58.584Z,61.5
2017-08-12T00:12:01.031Z,61.5
2017-08-12T00:13:04.466Z,61.4
2017-08-12T00:14:06.890Z,61.4
2017-08-12T00:15:10.092Z,61.5
2017-08-12T00:16:12.516Z,61.6
2017-08-12T00:17:15.296Z,61.7
2017-08-12T00:18:17.720Z,61.7
2017-08-12T00:19:20.171Z,61.6
2017-08-12T00:20:22.928Z,61.5
2017-08-12T00:21:25.325Z,61.6
2017-08-12T00:22:27.739Z,61.7
2017-08-12T00:23:30.162Z,61.6
2017-08-12T00:24:32.957Z,61.7
2017-08-12T00:25:36.170Z,61.6
2017-08-12T00:26:38.585Z,61.5
2017-08-12T00:27:41.030Z,61.6
2017-08-12T00:28:43.460Z,61.5
2017-08-12T00:29:45.875Z,61.6
2017-08-12T00:30:48.291Z,61.6
2017-08-12T00:31:51.059Z,61.6
2017-08-12T00:32:53.484Z,61.7
2017-08-12T00:33:55.915Z,61.6
2017-08-12T00:34:58.334Z,61.6
2017-08-12T00:36:01.216Z,61.6
2017-08-12T00:37:03.979Z,61.6
2017-08-12T00:38:06.386Z,61.5
2017-08-12T00:39:09.147Z,61.5
2017-08-12T00:40:11.924Z,61.6
2017-08-12T00:41:14.344Z,61.7
2017-08-12T00:42:16.762Z,61.7
2017-08-12T00:43:19.912Z,61.8
2017-08-12T00:44:22.323Z,61.7
2017-08-12T00:45:24.755Z,61.7
2017-08-12T00:46:27.173Z,61.6
2017-08-12T00:47:29.582Z,61.7
2017-08-12T00:48:32.352Z,61.7
2017-08-12T00:49:34.768Z,61.7
2017-08-12T00:50:38.225Z,61.7
2017-08-12T00:51:40.983Z,61.8
2017-08-12T00:52:43.884Z,61.8
2017-08-12T00:53:46.302Z,61.8
2017-08-12T00:54:49.086Z,61.9
2017-08-12T00:55:52.177Z,61.8
2017-08-12T00:56:54.631Z,61.8
2017-08-12T00:57:57.729Z,61.9
2017-08-12T00:59:00.142Z,61.8
2017-08-12T01:00:02.912Z,61.8
2017-08-12T01:01:05.670Z,61.8
2017-08-12T01:02:08.423Z,61.9
2017-08-12T01:03:11.183Z,62.1
2017-08-12T01:04:13.951Z,62.1
2017-08-12T01:05:16.818Z,62.1
2017-08-12T01:06:19.238Z,62.1
2017-08-12T01:07:21.665Z,62
2017-08-12T01:08:24.090Z,61.9
2017-08-12T01:09:27.173Z,61.9
2017-08-12T01:10:29.594Z,61.9
2017-08-12T01:11:32.341Z,61.9
2017-08-12T01:12:35.149Z,61.8
2017-08-12T01:13:38.250Z,61.9
2017-08-12T01:14:41.342Z,61.7
2017-08-12T01:15:44.090Z,61.8
2017-08-12T01:16:46.855Z,61.9
2017-08-12T01:17:49.602Z,62
2017-08-12T01:18:52.992Z,62
2017-08-12T01:19:55.414Z,62
2017-08-12T01:20:58.493Z,62.1
2017-08-12T01:22:00.912Z,62.1
2017-08-12T01:23:03.342Z,62.1
2017-08-12T01:24:06.492Z,62
2017-08-12T01:25:08.902Z,62.1
2017-08-12T01:26:11.792Z,62.1
2017-08-12T01:27:14.203Z,62.2
2017-08-12T01:28:16.630Z,62.3
2017-08-12T01:29:19.049Z,62.3
2017-08-12T01:30:21.471Z,62.2
2017-08-12T01:31:24.228Z,62.1
2017-08-12T01:32:26.655Z,62.1
2017-08-12T01:33:29.422Z,62.2
2017-08-12T01:34:32.326Z,62.2
2017-08-12T01:35:35.088Z,62.2
2017-08-12T01:36:37.848Z,62
2017-08-12T01:37:40.274Z,62.2
2017-08-12T01:38:42.700Z,62.3
2017-08-12T01:39:45.470Z,62.5
2017-08-12T01:40:47.927Z,62.4
2017-08-12T01:41:50.503Z,62.3
2017-08-12T01:42:53.250Z,62.3
2017-08-12T01:43:55.984Z,62.4
2017-08-12T01:44:58.407Z,62.3
2017-08-12T01:46:01.177Z,62.3
2017-08-12T01:47:03.597Z,62.3
2017-08-12T01:48:06.353Z,62.3
2017-08-12T01:49:08.772Z,62.3
2017-08-12T01:50:11.184Z,62.2
2017-08-12T01:51:13.615Z,62.3
2017-08-12T01:52:16.191Z,62.3
2017-08-12T01:53:18.613Z,62.3
2017-08-12T01:54:21.707Z,62.3
2017-08-12T01:55:24.121Z,62.3
2017-08-12T01:56:26.540Z,62.3
2017-08-12T01:57:28.960Z,62.2
2017-08-12T01:58:31.719Z,62.3
2017-08-12T01:59:34.153Z,62.4
2017-08-12T02:00:36.594Z,62.3
2017-08-12T02:01:40.094Z,62.3
2017-08-12T02:02:42.854Z,62.4
2017-08-12T02:03:45.265Z,62.4
2017-08-12T02:04:47.688Z,62.4
2017-08-12T02:05:50.107Z,62.5
2017-08-12T02:06:52.530Z,62.5
2017-08-12T02:07:54.953Z,62.5
2017-08-12T02:08:57.361Z,62.5
2017-08-12T02:10:00.225Z,62.6
2017-08-12T02:11:03.319Z,62.6
2017-08-12T02:12:05.727Z,62.8
2017-08-12T02:13:08.143Z,62.7
2017-08-12T02:14:10.934Z,62.8
2017-08-12T02:15:14.018Z,62.9
2017-08-12T02:16:16.807Z,62.8
2017-08-12T02:17:19.522Z,62.8
2017-08-12T02:18:21.934Z,62.6
2017-08-12T02:19:25.056Z,62.7
2017-08-12T02:20:27.804Z,62.8
2017-08-12T02:21:30.219Z,62.9
2017-08-12T02:22:32.973Z,62.8
2017-08-12T02:23:35.385Z,62.8
2017-08-12T02:24:38.453Z,62.9
2017-08-12T02:25:40.872Z,62.9
2017-08-12T02:26:43.286Z,62.8
2017-08-12T02:27:45.713Z,62.7
2017-08-12T02:28:48.465Z,62.7
2017-08-12T02:29:51.239Z,62.9
2017-08-12T02:30:53.656Z,63
2017-08-12T02:31:56.826Z,62.8
2017-08-12T02:32:59.259Z,62.8
2017-08-12T02:34:01.989Z,62.8
2017-08-12T02:35:04.746Z,62.9
2017-08-12T02:36:08.185Z,62.9
2017-08-12T02:37:10.941Z,62.8
2017-08-12T02:38:13.360Z,62.9
2017-08-12T02:39:16.303Z,62.9
2017-08-12T02:40:19.077Z,62.9
2017-08-12T02:41:21.826Z,63
2017-08-12T02:42:24.251Z,62.9
2017-08-12T02:43:26.663Z,62.9
2017-08-12T02:44:30.119Z,63.1
2017-08-12T02:45:33.214Z,63
2017-08-12T02:46:35.632Z,63
2017-08-12T02:47:38.039Z,63
2017-08-12T02:48:40.822Z,63.1
2017-08-12T02:49:43.587Z,63.1
2017-08-12T02:50:46.012Z,63
2017-08-12T02:51:48.762Z,63.1
2017-08-12T02:52:51.544Z,63.2
2017-08-12T02:53:54.184Z,63
2017-08-12T02:54:56.599Z,63.2
2017-08-12T02:55:59.354Z,63.3
2017-08-12T02:57:02.119Z,63.1
2017-08-12T02:58:04.531Z,63.1
2017-08-12T02:59:06.956Z,63.1
2017-08-12T03:00:09.377Z,63.1
2017-08-12T03:01:12.409Z,63.1
2017-08-12T03:02:14.835Z,63.1
2017-08-12T03:03:17.922Z,63
2017-08-12T03:04:20.338Z,63
2017-08-12T03:05:22.759Z,63.1
2017-08-12T03:06:25.175Z,63.1
2017-08-12T03:07:27.592Z,63.3
2017-08-12T03:08:30.007Z,63.2
2017-08-12T03:09:32.429Z,63.2
2017-08-12T03:10:34.840Z,63.2
2017-08-12T03:11:38.063Z,63.1
2017-08-12T03:12:40.498Z,63.2
2017-08-12T03:13:42.918Z,63.3
2017-08-12T03:14:45.335Z,63.3
2017-08-12T03:15:47.753Z,63.2
2017-08-12T03:16:50.163Z,63.3
2017-08-12T03:17:53.264Z,63.2
2017-08-12T03:18:55.701Z,63.3
2017-08-12T03:19:58.120Z,63.3
2017-08-12T03:21:00.545Z,63.3
2017-08-12T03:22:03.908Z,63.4
2017-08-12T03:23:06.321Z,63.3
2017-08-12T03:24:09.121Z,63.3
2017-08-12T03:25:11.860Z,63.2
2017-08-12T03:26:14.275Z,63.3
2017-08-12T03:27:17.082Z,63.3
2017-08-12T03:28:19.510Z,63.5
2017-08-12T03:29:22.319Z,63.5
2017-08-12T03:30:25.083Z,63.4
2017-08-12T03:31:27.858Z,63.4
2017-08-12T03:32:30.611Z,63.5
2017-08-12T03:33:34.050Z,63.4
2017-08-12T03:34:36.470Z,63.3
2017-08-12T03:35:39.224Z,63.3
2017-08-12T03:36:41.978Z,63.4
2017-08-12T03:37:44.396Z,63.4
2017-08-12T03:38:46.811Z,63.4
2017-08-12T03:39:49.235Z,63.5
2017-08-12T03:40:51.652Z,63.4
2017-08-12T03:41:54.054Z,63.4
2017-08-12T03:42:56.479Z,63.5
2017-08-12T03:43:58.924Z,63.5
2017-08-12T03:45:01.336Z,63.5
2017-08-12T03:46:04.094Z,63.5
2017-08-12T03:47:07.186Z,63.5
2017-08-12T03:48:09.603Z,63.5
2017-08-12T03:49:12.030Z,63.6
2017-08-12T03:50:14.782Z,63.4
2017-08-12T03:51:17.877Z,63.5
2017-08-12T03:52:20.637Z,63.5
2017-08-12T03:53:23.047Z,63.5
2017-08-12T03:54:25.464Z,63.6
2017-08-12T03:55:28.219Z,63.6
2017-08-12T03:56:30.637Z,63.6
2017-08-12T03:57:33.052Z,63.7
2017-08-12T03:58:35.485Z,63.7
2017-08-12T03:59:37.898Z,63.6
2017-08-12T04:00:40.346Z,63.6
2017-08-12T04:01:42.763Z,63.7
2017-08-12T04:02:45.856Z,63.8
2017-08-12T04:03:48.618Z,63.6
2017-08-12T04:04:51.037Z,63.6
2017-08-12T04:05:53.442Z,63.7
2017-08-12T04:06:56.887Z,63.7
2017-08-12T04:07:59.304Z,63.5
2017-08-12T04:09:02.414Z,63.6
2017-08-12T04:10:04.867Z,63.7
2017-08-12T04:11:07.619Z,63.7
2017-08-12T04:12:10.032Z,63.7
2017-08-12T04:13:12.459Z,63.8
2017-08-12T04:14:15.213Z,63.7
2017-08-12T04:15:17.635Z,63.8
2017-08-12T04:16:20.058Z,63.8
2017-08-12T04:17:23.180Z,63.7
2017-08-12T04:18:25.593Z,63.7
2017-08-12T04:19:28.000Z,63.8
2017-08-12T04:20:30.418Z,63.8
2017-08-12T04:21:32.832Z,63.8
2017-08-12T04:22:35.607Z,63.8
2017-08-12T04:23:38.022Z,63.9
2017-08-12T04:24:40.449Z,63.8
2017-08-12T04:25:43.194Z,63.7
2017-08-12T04:26:45.612Z,63.7
2017-08-12T04:27:48.028Z,63.6
2017-08-12T04:28:50.776Z,63.5
2017-08-12T04:29:53.196Z,63.6
2017-08-12T04:30:55.989Z,63.5
2017-08-12T04:31:58.755Z,63.6
2017-08-12T04:33:01.161Z,63.7
2017-08-12T04:34:03.920Z,63.7
2017-08-12T04:35:06.349Z,63.7
2017-08-12T04:36:08.766Z,63.6
2017-08-12T04:37:11.176Z,63.6
2017-08-12T04:38:13.606Z,63.7
2017-08-12T04:39:16.016Z,63.6
2017-08-12T04:40:18.421Z,63.7
2017-08-12T04:41:20.847Z,63.9
2017-08-12T04:42:23.602Z,63.7
2017-08-12T04:43:26.359Z,63.8
2017-08-12T04:44:28.776Z,63.7
2017-08-12T04:45:31.196Z,63.7
2017-08-12T04:46:34.311Z,63.7
2017-08-12T04:47:37.073Z,63.7
2017-08-12T04:48:39.819Z,63.7
2017-08-12T04:49:42.574Z,63.8
2017-08-12T04:50:45.336Z,63.7
2017-08-12T04:51:48.087Z,63.8
2017-08-12T04:52:50.503Z,63.8
2017-08-12T04:53:52.915Z,63.8
2017-08-12T04:54:55.677Z,63.7
2017-08-12T04:55:58.429Z,63.7
2017-08-12T04:57:00.841Z,63.6
2017-08-12T04:58:03.618Z,63.6
2017-08-12T04:59:06.034Z,63.7
2017-08-12T05:00:09.137Z,63.7
2017-08-12T05:01:11.552Z,63.7
2017-08-12T05:02:13.960Z,63.6
2017-08-12T05:03:16.729Z,63.6
2017-08-12T05:04:19.137Z,63.6
2017-08-12T05:05:21.884Z,63.5
2017-08-12T05:06:24.641Z,63.5
2017-08-12T05:07:27.063Z,63.5
2017-08-12T05:08:29.476Z,63.5
2017-08-12T05:09:31.891Z,63.6
2017-08-12T05:10:34.648Z,63.6
2017-08-12T05:11:37.398Z,63.7
2017-08-12T05:12:39.833Z,63.7
2017-08-12T05:13:43.264Z,63.6
2017-08-12T05:14:46.020Z,63.5
2017-08-12T05:15:48.783Z,63.7
2017-08-12T05:16:51.208Z,63.6
2017-08-12T05:17:53.623Z,63.6
2017-08-12T05:18:56.372Z,63.6
2017-08-12T05:19:58.783Z,63.7
2017-08-12T05:21:01.200Z,63.8
2017-08-12T05:22:03.956Z,63.8
2017-08-12T05:23:06.713Z,63.9
2017-08-12T05:24:09.145Z,64
2017-08-12T05:25:11.561Z,63.9
2017-08-12T05:26:13.967Z,63.8
2017-08-12T05:27:16.386Z,63.7
2017-08-12T05:28:18.799Z,63.8
2017-08-12T05:29:21.212Z,63.7
2017-08-12T05:30:23.658Z,63.6
2017-08-12T05:31:26.090Z,63.7
2017-08-12T05:32:28.506Z,63.7
2017-08-12T05:33:31.267Z,63.6
2017-08-12T05:34:34.020Z,63.6
2017-08-12T05:35:36.443Z,63.6
2017-08-12T05:36:39.537Z,63.5
2017-08-12T05:37:41.963Z,63.6
2017-08-12T05:38:44.371Z,63.6
2017-08-12T05:39:46.797Z,63.5
2017-08-12T05:40:49.888Z,63.5
2017-08-12T05:41:52.304Z,63.7
2017-08-12T05:42:54.715Z,63.7
2017-08-12T05:43:57.485Z,63.7
2017-08-12T05:45:00.228Z,63.5
2017-08-12T05:46:03.342Z,63.3
2017-08-12T05:47:06.099Z,63.3
2017-08-12T05:48:08.837Z,63.3
2017-08-12T05:49:11.601Z,63.3
2017-08-12T05:50:14.367Z,63.4
2017-08-12T05:51:17.132Z,63.5
2017-08-12T05:52:19.557Z,63.4
2017-08-12T05:53:22.306Z,63.4
2017-08-12T05:54:24.722Z,63.4
2017-08-12T05:55:27.822Z,63.4
2017-08-12T05:56:30.236Z,63.5
2017-08-12T05:57:32.675Z,63.5
2017-08-12T05:58:35.085Z,63.4
2017-08-12T05:59:37.512Z,63.4
2017-08-12T06:00:39.923Z,63.4
2017-08-12T06:01:43.020Z,63.5
2017-08-12T06:02:45.448Z,63.5
2017-08-12T06:03:47.861Z,63.4
2017-08-12T06:04:50.275Z,63.5
2017-08-12T06:05:53.377Z,63.3
2017-08-12T06:06:55.787Z,63.2
2017-08-12T06:07:58.207Z,63.3
2017-08-12T06:09:00.623Z,63.4
2017-08-12T06:10:03.386Z,63.4
2017-08-12T06:11:06.500Z,63.4
2017-08-12T06:12:41.052Z,63.3
2017-08-12T06:13:43.533Z,63.2
2017-08-12T06:14:46.012Z,63.1
2017-08-12T06:15:49.190Z,63.2
2017-08-12T06:16:51.680Z,63.2
2017-08-12T06:17:54.174Z,63.2
2017-08-12T06:18:56.991Z,63.4
2017-08-12T06:19:59.813Z,63.3
2017-08-12T06:21:02.653Z,63.2
2017-08-12T06:22:05.497Z,63.2
2017-08-12T06:23:08.677Z,63.1
2017-08-12T06:24:11.187Z,63
2017-08-12T06:25:14.361Z,62.9
2017-08-12T06:26:17.239Z,63.1
2017-08-12T06:27:19.734Z,63.3
2017-08-12T06:28:22.222Z,63.3
2017-08-12T06:29:24.699Z,63.3
2017-08-12T06:30:27.205Z,63.2
2017-08-12T06:31:29.710Z,63.3
2017-08-12T06:32:32.197Z,63.4
2017-08-12T06:33:34.685Z,63.4
2017-08-12T06:34:37.517Z,63.4
2017-08-12T06:35:40.348Z,63.3
2017-08-12T06:36:43.185Z,63.4
2017-08-12T06:37:45.691Z,63.3
2017-08-12T06:38:48.169Z,63.1
2017-08-12T06:39:50.993Z,63.2
2017-08-12T06:40:53.822Z,63.1
2017-08-12T06:41:56.322Z,63.1
2017-08-12T06:42:58.797Z,63.2
2017-08-12T06:44:01.636Z,63.1
2017-08-12T06:45:04.466Z,63
2017-08-12T06:46:08.006Z,62.9
2017-08-12T06:47:10.500Z,62.9
2017-08-12T06:48:13.335Z,62.9
2017-08-12T06:49:16.164Z,63
2017-08-12T06:50:18.994Z,62.9
2017-08-12T06:51:21.485Z,62.9
2017-08-12T06:52:23.982Z,62.9
2017-08-12T06:53:26.460Z,62.9
2017-08-12T06:54:28.940Z,62.9
2017-08-12T06:55:31.822Z,62.8
2017-08-12T06:56:34.311Z,62.9
2017-08-12T06:57:37.132Z,62.9
2017-08-12T06:58:39.616Z,63
2017-08-12T06:59:42.453Z,63.1
2017-08-12T07:00:44.945Z,63.2
2017-08-12T07:01:47.435Z,63.3
2017-08-12T07:02:49.946Z,63.2
2017-08-12T07:03:52.765Z,63.2
2017-08-12T07:04:55.961Z,63.2
2017-08-12T07:05:58.450Z,63.2
2017-08-12T07:07:00.939Z,63.3
2017-08-12T07:08:04.114Z,63.1
2017-08-12T07:09:06.946Z,63.1
2017-08-12T07:10:09.414Z,63.2
2017-08-12T07:11:11.917Z,63.2
2017-08-12T07:12:14.410Z,63.3
2017-08-12T07:13:17.254Z,63.3
2017-08-12T07:14:20.431Z,63.3
2017-08-12T07:15:23.598Z,63.3
2017-08-12T07:16:26.091Z,63.3
2017-08-12T07:17:28.586Z,63.4
2017-08-12T07:18:31.082Z,63.4
2017-08-12T07:19:33.572Z,63.3
2017-08-12T07:20:36.063Z,63.3
2017-08-12T07:21:38.555Z,63.3
2017-08-12T07:22:41.046Z,63.3
2017-08-12T07:23:43.874Z,63.4
2017-08-12T07:24:46.363Z,63.4
2017-08-12T07:25:49.189Z,63.5
2017-08-12T07:26:51.672Z,63.4
2017-08-12T07:27:54.173Z,63.3
2017-08-12T07:28:56.665Z,63.4
2017-08-12T07:29:59.498Z,63.4
2017-08-12T07:31:02.337Z,63.5
2017-08-12T07:32:04.832Z,63.4
2017-08-12T07:33:07.318Z,63.4
2017-08-12T07:34:09.827Z,63.5
2017-08-12T07:35:12.659Z,63.5
2017-08-12T07:36:15.155Z,63.5
2017-08-12T07:37:18.317Z,63.4
2017-08-12T07:38:20.796Z,63.4
2017-08-12T07:39:23.633Z,63.5
2017-08-12T07:40:26.120Z,63.5
2017-08-12T07:41:28.936Z,63.5
2017-08-12T07:42:31.445Z,63.5
2017-08-12T07:43:33.955Z,63.4
2017-08-12T07:44:36.778Z,63.4
2017-08-12T07:45:39.645Z,63.4
2017-08-12T07:46:42.132Z,63.4
2017-08-12T07:47:44.618Z,63.5
2017-08-12T07:48:47.125Z,63.5
2017-08-12T07:49:49.609Z,63.5
2017-08-12T07:50:52.089Z,63.4
2017-08-12T07:51:54.587Z,63.3
2017-08-12T07:52:57.062Z,63.4
2017-08-12T07:53:59.557Z,63.4
2017-08-12T07:55:02.733Z,63.5
2017-08-12T07:56:05.210Z,63.3
2017-08-12T07:57:07.712Z,63.4
2017-08-12T07:58:10.192Z,63.3
2017-08-12T07:59:12.674Z,63.3
2017-08-12T08:00:15.526Z,63.2
2017-08-12T08:01:18.009Z,63.4
2017-08-12T08:02:20.839Z,63.3
2017-08-12T08:03:23.321Z,63.3
2017-08-12T08:04:25.815Z,63.1
2017-08-12T08:05:28.299Z,63.2
2017-08-12T08:06:30.789Z,63.1
2017-08-12T08:07:33.598Z,63.3
2017-08-12T08:08:36.459Z,63.4
2017-08-12T08:09:39.637Z,63.4
2017-08-12T08:10:42.136Z,63.3
2017-08-12T08:11:45.312Z,63.2
2017-08-12T08:12:47.800Z,63.3
2017-08-12T08:13:50.636Z,63.1
2017-08-12T08:14:53.464Z,63
2017-08-12T08:15:55.956Z,63.1
2017-08-12T08:16:58.797Z,63.1
2017-08-12T08:18:01.614Z,63.1
2017-08-12T08:19:04.482Z,63
2017-08-12T08:20:06.964Z,62.8
2017-08-12T08:21:09.450Z,62.9
2017-08-12T08:22:11.933Z,62.7
2017-08-12T08:23:14.422Z,62.8
2017-08-12T08:24:16.904Z,62.9
2017-08-12T08:25:19.391Z,62.8
2017-08-12T08:26:22.208Z,62.8
2017-08-12T08:27:24.695Z,62.8
2017-08-12T08:28:27.204Z,62.8
2017-08-12T08:29:29.687Z,63
2017-08-12T08:30:32.169Z,63.1
2017-08-12T08:31:34.671Z,62.9
2017-08-12T08:32:37.157Z,62.8
2017-08-12T08:33:39.644Z,62.9
2017-08-12T08:34:42.132Z,62.9
2017-08-12T08:35:44.966Z,62.9
2017-08-12T08:36:47.787Z,63.3
2017-08-12T08:37:50.273Z,63.3
2017-08-12T08:38:52.780Z,63.4
2017-08-12T08:39:55.630Z,63.2
2017-08-12T08:40:58.470Z,63.1
2017-08-12T08:42:01.035Z,63.1
2017-08-12T08:43:03.559Z,63.1
2017-08-12T08:44:07.317Z,63.1
2017-08-12T08:45:10.476Z,63.1
2017-08-12T08:46:12.976Z,63
2017-08-12T08:47:15.508Z,63
2017-08-12T08:48:18.406Z,62.9
2017-08-12T08:49:20.916Z,62.9
2017-08-12T08:50:23.801Z,62.9
2017-08-12T08:51:26.305Z,62.9
2017-08-12T08:52:28.841Z,62.7
2017-08-12T08:53:31.361Z,62.7
2017-08-12T08:54:34.222Z,62.8
2017-08-12T08:55:36.771Z,62.7
2017-08-12T08:56:39.298Z,62.7
2017-08-12T08:57:41.791Z,62.7
2017-08-12T08:58:44.294Z,62.4
2017-08-12T08:59:46.833Z,62.5
2017-08-12T09:00:50.092Z,62.3
2017-08-12T09:01:52.600Z,62.2
2017-08-12T09:02:55.469Z,62.3
2017-08-12T09:03:58.111Z,62.3
2017-08-12T09:05:00.608Z,62.3
2017-08-12T09:06:03.147Z,62.3
2017-08-12T09:07:06.032Z,62.5
2017-08-12T09:08:08.937Z,62.5
2017-08-12T09:09:11.489Z,62.5
2017-08-12T09:10:14.682Z,62.4
2017-08-12T09:11:17.286Z,62.6
2017-08-12T09:12:19.818Z,62.4
2017-08-12T09:13:22.317Z,62.4
2017-08-12T09:14:24.891Z,62.3
2017-08-12T09:15:27.557Z,62.1
2017-08-12T09:16:30.369Z,62.1
2017-08-12T09:17:32.870Z,62.2
2017-08-12T09:18:35.377Z,62.2
2017-08-12T09:19:37.885Z,62.2
2017-08-12T09:20:40.404Z,62.1
2017-08-12T09:21:43.577Z,62
2017-08-12T09:22:46.112Z,61.9
2017-08-12T09:23:48.618Z,61.9
2017-08-12T09:24:52.132Z,61.8
2017-08-12T09:25:54.614Z,61.8
2017-08-12T09:26:57.463Z,61.8
2017-08-12T09:27:59.970Z,61.8
2017-08-12T09:29:02.455Z,61.9
2017-08-12T09:30:05.679Z,62
2017-08-12T09:31:08.180Z,61.9
2017-08-12T09:32:10.686Z,62
2017-08-12T09:33:13.526Z,61.9
2017-08-12T09:34:16.017Z,62
2017-08-12T09:35:18.529Z,61.7
2017-08-12T09:36:21.360Z,61.7
2017-08-12T09:37:24.194Z,61.7
2017-08-12T09:38:27.456Z,61.7
2017-08-12T09:39:30.727Z,61.7
2017-08-12T09:40:33.223Z,61.5
2017-08-12T09:41:35.737Z,61.3
2017-08-12T09:42:38.224Z,61.2
2017-08-12T09:43:41.064Z,61.4
2017-08-12T09:44:43.585Z,61.6
2017-08-12T09:45:46.275Z,61.5
2017-08-12T09:46:49.117Z,61.5
2017-08-12T09:47:52.295Z,61.4
2017-08-12T09:48:54.782Z,61.3
2017-08-12T09:49:57.653Z,61.3
2017-08-12T09:51:00.494Z,61.5
2017-08-12T09:52:02.992Z,61.7
2017-08-12T09:53:05.825Z,61.9
2017-08-12T09:54:08.661Z,61.9
2017-08-12T09:55:11.169Z,61.9
2017-08-12T09:56:13.682Z,61.8
2017-08-12T09:57:16.187Z,61.8
2017-08-12T09:58:18.703Z,61.6
2017-08-12T09:59:21.194Z,61.5
2017-08-12T10:00:23.693Z,61.4
2017-08-12T10:01:26.187Z,61.3
2017-08-12T10:02:28.687Z,61.4
2017-08-12T10:03:31.191Z,61.5
2017-08-12T10:04:33.723Z,61.5
2017-08-12T10:05:36.203Z,61.4
2017-08-12T10:06:39.051Z,61.3
2017-08-12T10:07:41.543Z,61.1
2017-08-12T10:08:44.047Z,60.9
2017-08-12T10:09:46.884Z,60.9
2017-08-12T10:10:49.715Z,61
2017-08-12T10:11:52.549Z,61.1
2017-08-12T10:12:55.056Z,61
2017-08-12T10:13:57.545Z,61.1
2017-08-12T10:15:00.039Z,61.3
2017-08-12T10:16:02.539Z,61.7
2017-08-12T10:17:05.727Z,62.2
2017-08-12T10:18:08.550Z,62.6
2017-08-12T10:19:11.070Z,62.9
2017-08-12T10:20:13.569Z,62.8
2017-08-12T10:21:16.773Z,62.5
2017-08-12T10:22:19.613Z,62.5
2017-08-12T10:23:22.111Z,62.5
2017-08-12T10:24:24.617Z,62.4
2017-08-12T10:25:27.146Z,62
2017-08-12T10:26:29.680Z,61.9
2017-08-12T10:27:32.170Z,61.5
2017-08-12T10:28:35.011Z,61.2
2017-08-12T10:29:37.528Z,61
2017-08-12T10:30:40.043Z,60.5
2017-08-12T10:31:42.541Z,60.4
2017-08-12T10:32:45.056Z,60.2
2017-08-12T10:33:47.908Z,60.2
2017-08-12T10:34:50.410Z,60
2017-08-12T10:35:52.912Z,60
2017-08-12T10:36:55.407Z,59.9
2017-08-12T10:37:57.923Z,59.9
2017-08-12T10:39:00.416Z,60
2017-08-12T10:40:03.260Z,59.9
2017-08-12T10:41:05.761Z,59.7
2017-08-12T10:42:08.603Z,59.5
2017-08-12T10:43:11.459Z,59.6
2017-08-12T10:44:13.966Z,59.6
2017-08-12T10:45:16.464Z,59.5
2017-08-12T10:46:18.973Z,59.4
2017-08-12T10:47:21.820Z,59.2
2017-08-12T10:48:24.321Z,59.3
2017-08-12T10:49:27.138Z,59.1
2017-08-12T10:50:29.985Z,59.1
2017-08-12T10:51:32.820Z,59.2
2017-08-12T10:52:35.674Z,59.2
2017-08-12T10:53:38.862Z,59.2
2017-08-12T10:54:41.363Z,59.1
2017-08-12T10:55:44.197Z,59.2
2017-08-12T10:56:46.716Z,59
2017-08-12T10:57:49.914Z,59.1
2017-08-12T10:58:52.420Z,59.2
2017-08-12T10:59:55.676Z,59
2017-08-12T11:00:58.181Z,59.1
2017-08-12T11:02:00.661Z,59
2017-08-12T11:03:03.839Z,59
2017-08-12T11:04:06.345Z,58.9
2017-08-12T11:05:09.183Z,58.9
2017-08-12T11:06:11.686Z,58.9
2017-08-12T11:07:14.520Z,58.8
2017-08-12T11:08:17.036Z,58.8
2017-08-12T11:09:19.552Z,58.8
2017-08-12T11:10:22.060Z,58.7
2017-08-12T11:11:24.895Z,58.7
2017-08-12T11:12:27.728Z,58.8
2017-08-12T11:13:30.550Z,59
2017-08-12T11:14:33.038Z,59
2017-08-12T11:15:35.541Z,59.1
2017-08-12T11:16:38.032Z,59.1
2017-08-12T11:17:40.521Z,58.8
2017-08-12T11:18:43.705Z,58.8
2017-08-12T11:19:46.539Z,58.7
2017-08-12T11:20:49.051Z,58.6
2017-08-12T11:21:51.910Z,58.7
2017-08-12T11:22:54.723Z,58.7
2017-08-12T11:23:57.224Z,58.7
2017-08-12T11:25:00.065Z,58.5
2017-08-12T11:26:02.567Z,58.4
2017-08-12T11:27:05.053Z,58.4
2017-08-12T11:28:07.584Z,58.5
2017-08-12T11:29:10.762Z,58.6
2017-08-12T11:30:13.239Z,58.6
2017-08-12T11:31:15.754Z,58.6
2017-08-12T11:32:18.249Z,58.7
2017-08-12T11:33:21.103Z,58.9
2017-08-12T11:34:23.603Z,59.2
2017-08-12T11:35:26.085Z,59.5
2017-08-12T11:36:28.590Z,59.5
2017-08-12T11:37:31.138Z,59.2
2017-08-12T11:38:33.970Z,58.5
2017-08-12T11:39:36.464Z,58.1
2017-08-12T11:40:38.964Z,58
2017-08-12T11:41:41.825Z,57.8
2017-08-12T11:42:44.328Z,57.6
2017-08-12T11:43:46.822Z,57.6
2017-08-12T11:44:49.313Z,57.6
2017-08-12T11:45:51.842Z,57.7
2017-08-12T11:46:54.266Z,57.8
2017-08-12T11:47:57.045Z,57.8
2017-08-12T11:48:59.470Z,57.7
2017-08-12T11:50:02.239Z,57.6
2017-08-12T11:51:05.001Z,57.6
2017-08-12T11:52:07.429Z,57.7
2017-08-12T11:53:10.189Z,57.6
2017-08-12T11:54:12.609Z,57.6
2017-08-12T11:55:15.371Z,57.4
2017-08-12T11:56:18.149Z,57.5
2017-08-12T11:57:20.571Z,57.4
2017-08-12T11:58:22.991Z,57.2
2017-08-12T11:59:25.408Z,57.2
2017-08-12T12:00:27.833Z,57.2
2017-08-12T12:01:30.276Z,57.2
2017-08-12T12:02:32.692Z,57.2
2017-08-12T12:03:35.446Z,57.2
2017-08-12T12:04:37.903Z,57.4
2017-08-12T12:05:40.333Z,57.6
2017-08-12T12:06:42.773Z,57.8
2017-08-12T12:07:45.190Z,57.9
2017-08-12T12:08:47.981Z,58
2017-08-12T12:09:50.761Z,58
2017-08-12T12:10:53.546Z,57.9
2017-08-12T12:11:56.002Z,57.9
2017-08-12T12:12:58.782Z,58
2017-08-12T12:14:01.566Z,58
2017-08-12T12:15:04.387Z,58.2
2017-08-12T12:16:07.155Z,58.2
2017-08-12T12:17:09.622Z,58
2017-08-12T12:18:12.065Z,57.9
2017-08-12T12:19:14.887Z,57.9
2017-08-12T12:20:17.712Z,58
2017-08-12T12:21:20.137Z,58.1
2017-08-12T12:22:22.586Z,58.1
2017-08-12T12:23:25.074Z,58.2
2017-08-12T12:24:27.610Z,58.3
2017-08-12T12:25:30.032Z,58
2017-08-12T12:26:32.803Z,58.1
2017-08-12T12:28:05.645Z,58.2
2017-08-12T12:29:08.408Z,58.2
2017-08-12T12:30:10.830Z,58.3
2017-08-12T12:31:13.328Z,58.4
2017-08-12T12:32:15.749Z,58.4
2017-08-12T12:33:18.169Z,58.3
2017-08-12T12:34:20.742Z,58.3
2017-08-12T12:35:23.183Z,58.2
2017-08-12T12:36:25.607Z,58.3
2017-08-12T12:37:28.734Z,58.4
2017-08-12T12:38:31.504Z,58.4
2017-08-12T12:39:34.704Z,58.6
2017-08-12T12:40:37.116Z,58.6
2017-08-12T12:41:39.911Z,58.6
2017-08-12T12:42:42.683Z,58.8
2017-08-12T12:43:45.141Z,58.8
2017-08-12T12:44:48.240Z,58.8
2017-08-12T12:45:51.091Z,59
2017-08-12T12:46:53.508Z,59
2017-08-12T12:47:56.115Z,59.1
2017-08-12T12:48:58.777Z,59.2
2017-08-12T12:50:01.204Z,59.3
2017-08-12T12:51:03.997Z,59.4
2017-08-12T12:52:07.119Z,59.2
2017-08-12T12:53:09.539Z,59
2017-08-12T12:54:11.971Z,58.8
2017-08-12T12:55:14.891Z,58.7
2017-08-12T12:56:17.293Z,58.6
2017-08-12T12:57:19.850Z,58.6
2017-08-12T12:58:22.262Z,58.6
2017-08-12T12:59:25.032Z,58.4
2017-08-12T13:00:27.675Z,58.4
2017-08-12T13:01:30.432Z,58.5
2017-08-12T13:02:33.108Z,58.6
2017-08-12T13:03:35.866Z,58.7
2017-08-12T13:04:38.301Z,58.8
2017-08-12T13:05:40.744Z,58.7
2017-08-12T13:06:43.596Z,58.5
2017-08-12T13:07:46.622Z,58.5
2017-08-12T13:08:49.046Z,58.4
2017-08-12T13:09:51.454Z,58
2017-08-12T13:10:54.230Z,57.9
2017-08-12T13:11:56.992Z,57.8
2017-08-12T13:12:59.957Z,57.9
2017-08-12T13:14:03.112Z,57.9
2017-08-12T13:15:06.732Z,58
2017-08-12T13:16:09.507Z,58.1
2017-08-12T13:17:12.655Z,58.1
2017-08-12T13:18:15.614Z,58.3
2017-08-12T13:19:18.460Z,58.1
2017-08-12T13:20:21.701Z,58.2
2017-08-12T13:21:24.165Z,58.3
2017-08-12T13:22:26.759Z,58.4
2017-08-12T13:23:29.679Z,58.2
2017-08-12T13:24:32.495Z,58.4
2017-08-12T13:25:35.616Z,58.4
2017-08-12T13:26:38.241Z,58.5
2017-08-12T13:27:41.359Z,58.4
2017-08-12T13:28:44.173Z,58.5
2017-08-12T13:29:46.816Z,58.7
2017-08-12T13:30:49.409Z,58.6
2017-08-12T13:31:52.796Z,58.6
2017-08-12T13:32:55.253Z,58.5
2017-08-12T13:33:57.821Z,58.4
2017-08-12T13:35:00.643Z,58.4
2017-08-12T13:36:04.254Z,58.4
2017-08-12T13:37:06.684Z,58.3
2017-08-12T13:38:09.562Z,58.2
2017-08-12T13:39:12.179Z,58.1
2017-08-12T13:40:14.713Z,58
2017-08-12T13:41:17.407Z,58.1
2017-08-12T13:42:20.177Z,58.4
2017-08-12T13:43:23.033Z,58.4
2017-08-12T13:44:25.786Z,58.4
2017-08-12T13:45:28.762Z,58.4
2017-08-12T13:46:31.449Z,58.4
2017-08-12T13:47:34.342Z,58.5
2017-08-12T13:48:36.966Z,58.5
2017-08-12T13:49:39.717Z,58.5
2017-08-12T13:50:42.650Z,58.7
2017-08-12T13:51:45.468Z,58.7
2017-08-12T13:52:48.049Z,58.4
2017-08-12T13:53:51.092Z,58.5
2017-08-12T13:54:54.059Z,58.7
2017-08-12T13:55:57.063Z,58.7
2017-08-12T13:56:59.645Z,58.8
2017-08-12T13:58:02.468Z,58.8
2017-08-12T13:59:05.278Z,58.8